TimeEDT,TemperatureF,Dew PointF,Humidity,Sea Level PressureIn,VisibilityMPH,Wind Direction,Wind SpeedMPH,Gust SpeedMPH,PrecipitationIn,Events,Conditions,WindDirDegrees,DateUTC
12:00 AM,69.8,68.0,94,30.05,10.0,South,5.8,-,N/A,,Overcast,180,2013-06-11 04:00:00
12:53 AM,71.1,68.0,90,30.01,10.0,SW,8.1,-,N/A,,Overcast,230,2013-06-11 04:53:00
1:53 AM,71.1,68.0,90,30.00,10.0,SW,12.7,18.4,N/A,,Overcast,230,2013-06-11 05:53:00
2:32 AM,71.6,68.0,88,30.03,10.0,WSW,11.5,-,N/A,,Mostly Cloudy,240,2013-06-11 06:32:00
2:53 AM,72.0,68.0,87,29.98,10.0,SW,10.4,-,N/A,,Mostly Cloudy,230,2013-06-11 06:53:00
3:53 AM,72.0,69.1,91,29.97,10.0,WSW,12.7,-,N/A,,Overcast,240,2013-06-11 07:53:00
4:53 AM,73.0,69.1,87,29.97,10.0,WSW,12.7,-,N/A,,Overcast,240,2013-06-11 08:53:00
5:53 AM,73.0,68.0,84,29.99,10.0,WSW,9.2,18.4,N/A,,Overcast,250,2013-06-11 09:53:00
6:40 AM,71.6,69.8,94,30.05,2.0,West,10.4,20.7,0.07,Rain,Heavy Rain,270,2013-06-11 10:40:00
6:44 AM,71.6,69.8,94,30.05,1.5,West,12.7,18.4,0.09,Rain,Heavy Rain,260,2013-06-11 10:44:00
6:49 AM,71.6,69.8,94,30.05,2.0,West,15.0,-,0.10,Rain,Light Rain,260,2013-06-11 10:49:00
6:51 AM,71.6,69.8,94,30.06,3.0,West,15.0,-,0.10,Rain,Light Rain,270,2013-06-11 10:51:00
6:53 AM,72.0,69.1,91,30.01,4.0,WNW,13.8,-,0.10,Rain,Light Rain,290,2013-06-11 10:53:00
7:41 AM,73.4,69.8,88,30.07,8.0,WSW,6.9,-,0.00,,Mostly Cloudy,250,2013-06-11 11:41:00
7:50 AM,73.4,69.8,88,30.07,8.0,West,10.4,17.3,0.00,,Mostly Cloudy,270,2013-06-11 11:50:00
7:53 AM,73.0,69.1,87,30.03,8.0,West,10.4,26.5,0.00,,Overcast,260,2013-06-11 11:53:00
8:09 AM,73.4,69.8,88,30.08,7.0,WSW,8.1,-,N/A,,Overcast,250,2013-06-11 12:09:00
8:53 AM,75.0,70.0,84,30.04,8.0,West,6.9,-,N/A,,Mostly Cloudy,260,2013-06-11 12:53:00
9:53 AM,75.9,70.0,82,30.05,10.0,West,13.8,19.6,N/A,,Mostly Cloudy,260,2013-06-11 13:53:00
10:27 AM,78.8,69.8,74,30.09,10.0,West,13.8,-,N/A,,Mostly Cloudy,260,2013-06-11 14:27:00
10:42 AM,78.8,69.8,74,30.08,10.0,WNW,11.5,23.0,N/A,,Scattered Clouds,290,2013-06-11 14:42:00
10:51 AM,78.8,69.8,74,30.08,10.0,West,10.4,-,N/A,,Mostly Cloudy,270,2013-06-11 14:51:00
10:53 AM,78.1,70.0,76,30.04,10.0,West,12.7,-,N/A,,Mostly Cloudy,260,2013-06-11 14:53:00
11:00 AM,78.8,69.8,74,30.08,10.0,West,10.4,-,N/A,,Scattered Clouds,280,2013-06-11 15:00:00
11:53 AM,81.0,69.1,67,30.04,10.0,West,12.7,24.2,N/A,,Clear,280,2013-06-11 15:53:00
12:53 PM,82.9,69.1,63,30.03,10.0,West,10.4,-,N/A,,Partly Cloudy,260,2013-06-11 16:53:00
1:53 PM,84.0,70.0,63,30.01,10.0,West,10.4,-,N/A,,Scattered Clouds,280,2013-06-11 17:53:00
2:53 PM,84.9,68.0,57,29.99,10.0,WNW,11.5,19.6,N/A,,Partly Cloudy,300,2013-06-11 18:53:00
3:53 PM,87.1,70.0,57,29.99,10.0,West,10.4,-,N/A,,Partly Cloudy,280,2013-06-11 19:53:00
4:53 PM,87.1,66.0,49,29.98,10.0,West,12.7,20.7,N/A,,Clear,280,2013-06-11 20:53:00
5:53 PM,87.1,66.0,49,29.97,10.0,WNW,10.4,-,N/A,,Clear,290,2013-06-11 21:53:00
6:53 PM,86.0,68.0,55,29.97,10.0,WNW,8.1,-,N/A,,Clear,300,2013-06-11 22:53:00
7:53 PM,84.0,66.9,56,29.97,10.0,WNW,6.9,-,N/A,,Clear,290,2013-06-11 23:53:00
8:53 PM,81.0,68.0,65,29.99,10.0,Calm,Calm,-,N/A,,Clear,0,2013-06-12 00:53:00
9:53 PM,78.1,68.0,71,30.00,10.0,West,3.5,-,N/A,,Clear,270,2013-06-12 01:53:00
10:53 PM,78.1,68.0,71,30.02,10.0,WNW,5.8,-,N/A,,Clear,290,2013-06-12 02:53:00
11:53 PM,75.9,69.1,79,30.02,10.0,WNW,3.5,-,N/A,,Clear,290,2013-06-12 03:53:00